sensor_id;sensor_type;location;lat;lon;timestamp;P1;durP1;ratioP1;P2;durP2;ratioP2
26080;SDS011;13991;51.174;4.438;2024-03-02T00:01:10;0.70;;;0.40;;
26080;SDS011;13991;51.174;4.438;2024-03-02T00:03:37;5.07;;;1.03;;
26080;SDS011;13991;51.174;4.438;2024-03-02T00:06:07;0.63;;;0.20;;
26080;SDS011;13991;51.174;4.438;2024-03-02T00:08:33;2.90;;;0.33;;
26080;SDS011;13991;51.174;4.438;2024-03-02T00:11:00;3.40;;;0.63;;
26080;SDS011;13991;51.174;4.438;2024-03-02T00:13:28;1.60;;;0.50;;
26080;SDS011;13991;51.174;4.438;2024-03-02T00:15:55;0.77;;;0.30;;
26080;SDS011;13991;51.174;4.438;2024-03-02T00:20:55;2.57;;;0.30;;
26080;SDS011;13991;51.174;4.438;2024-03-02T00:23:21;1.53;;;0.50;;
26080;SDS011;13991;51.174;4.438;2024-03-02T00:28:21;1.50;;;0.50;;
26080;SDS011;13991;51.174;4.438;2024-03-02T00:33:37;0.83;;;0.57;;
26080;SDS011;13991;51.174;4.438;2024-03-02T00:36:15;0.50;;;0.30;;
26080;SDS011;13991;51.174;4.438;2024-03-02T00:38:51;0.30;;;0.30;;
26080;SDS011;13991;51.174;4.438;2024-03-02T00:41:21;3.87;;;0.53;;
26080;SDS011;13991;51.174;4.438;2024-03-02T00:44:05;0.90;;;0.40;;
26080;SDS011;13991;51.174;4.438;2024-03-02T00:46:37;2.67;;;0.40;;
26080;SDS011;13991;51.174;4.438;2024-03-02T00:49:04;3.80;;;0.60;;
26080;SDS011;13991;51.174;4.438;2024-03-02T00:51:36;0.70;;;0.40;;
26080;SDS011;13991;51.174;4.438;2024-03-02T00:54:08;0.50;;;0.30;;
26080;SDS011;13991;51.174;4.438;2024-03-02T00:56:35;2.60;;;0.30;;
26080;SDS011;13991;51.174;4.438;2024-03-02T00:59:02;2.63;;;0.40;;
26080;SDS011;13991;51.174;4.438;2024-03-02T01:01:28;1.43;;;0.50;;
26080;SDS011;13991;51.174;4.438;2024-03-02T01:03:54;1.30;;;0.40;;
26080;SDS011;13991;51.174;4.438;2024-03-02T01:06:20;0.93;;;0.40;;
26080;SDS011;13991;51.174;4.438;2024-03-02T01:08:47;0.70;;;0.30;;
26080;SDS011;13991;51.174;4.438;2024-03-02T01:11:16;0.90;;;0.33;;
26080;SDS011;13991;51.174;4.438;2024-03-02T01:13:43;1.23;;;0.33;;
26080;SDS011;13991;51.174;4.438;2024-03-02T01:16:09;0.37;;;0.37;;
26080;SDS011;13991;51.174;4.438;2024-03-02T01:18:35;5.37;;;0.57;;
26080;SDS011;13991;51.174;4.438;2024-03-02T01:21:01;2.20;;;0.50;;
26080;SDS011;13991;51.174;4.438;2024-03-02T01:23:28;5.30;;;0.57;;
26080;SDS011;13991;51.174;4.438;2024-03-02T01:25:53;4.93;;;0.60;;
26080;SDS011;13991;51.174;4.438;2024-03-02T01:28:20;2.47;;;0.50;;
26080;SDS011;13991;51.174;4.438;2024-03-02T01:30:47;2.57;;;0.50;;
26080;SDS011;13991;51.174;4.438;2024-03-02T01:33:14;2.07;;;0.50;;
26080;SDS011;13991;51.174;4.438;2024-03-02T01:35:40;1.17;;;0.50;;
26080;SDS011;13991;51.174;4.438;2024-03-02T01:38:06;0.30;;;0.30;;
26080;SDS011;13991;51.174;4.438;2024-03-02T01:40:35;1.27;;;0.30;;
26080;SDS011;13991;51.174;4.438;2024-03-02T01:43:01;2.97;;;0.37;;
26080;SDS011;13991;51.174;4.438;2024-03-02T01:45:27;8.40;;;0.43;;
26080;SDS011;13991;51.174;4.438;2024-03-02T01:47:53;3.07;;;0.40;;
26080;SDS011;13991;51.174;4.438;2024-03-02T01:50:26;0.40;;;0.30;;
26080;SDS011;13991;51.174;4.438;2024-03-02T01:52:56;1.13;;;0.30;;
26080;SDS011;13991;51.174;4.438;2024-03-02T01:55:22;0.93;;;0.30;;
26080;SDS011;13991;51.174;4.438;2024-03-02T01:57:48;0.77;;;0.30;;
26080;SDS011;13991;51.174;4.438;2024-03-02T02:00:21;3.03;;;0.30;;
26080;SDS011;13991;51.174;4.438;2024-03-02T02:02:47;0.37;;;0.20;;
26080;SDS011;13991;51.174;4.438;2024-03-02T02:05:13;1.33;;;0.30;;
26080;SDS011;13991;51.174;4.438;2024-03-02T02:07:42;0.30;;;0.30;;
26080;SDS011;13991;51.174;4.438;2024-03-02T02:10:09;4.03;;;0.27;;
26080;SDS011;13991;51.174;4.438;2024-03-02T02:12:36;0.97;;;0.40;;
26080;SDS011;13991;51.174;4.438;2024-03-02T02:15:02;2.30;;;0.40;;
26080;SDS011;13991;51.174;4.438;2024-03-02T02:17:30;0.27;;;0.27;;
26080;SDS011;13991;51.174;4.438;2024-03-02T02:19:56;4.47;;;0.30;;
26080;SDS011;13991;51.174;4.438;2024-03-02T02:22:21;1.50;;;0.50;;
26080;SDS011;13991;51.174;4.438;2024-03-02T02:24:47;0.30;;;0.30;;
26080;SDS011;13991;51.174;4.438;2024-03-02T02:27:13;6.40;;;0.50;;
26080;SDS011;13991;51.174;4.438;2024-03-02T02:29:40;1.17;;;0.50;;
26080;SDS011;13991;51.174;4.438;2024-03-02T02:32:07;0.97;;;0.30;;
26080;SDS011;13991;51.174;4.438;2024-03-02T02:34:33;2.20;;;0.73;;
26080;SDS011;13991;51.174;4.438;2024-03-02T02:36:58;1.00;;;0.43;;
26080;SDS011;13991;51.174;4.438;2024-03-02T02:39:24;3.57;;;0.40;;
26080;SDS011;13991;51.174;4.438;2024-03-02T02:41:50;0.50;;;0.30;;
26080;SDS011;13991;51.174;4.438;2024-03-02T02:44:16;3.63;;;0.50;;
26080;SDS011;13991;51.174;4.438;2024-03-02T02:46:42;5.27;;;0.40;;
26080;SDS011;13991;51.174;4.438;2024-03-02T02:49:07;2.43;;;0.30;;
26080;SDS011;13991;51.174;4.438;2024-03-02T02:51:33;2.57;;;0.47;;
26080;SDS011;13991;51.174;4.438;2024-03-02T02:53:59;3.67;;;0.60;;
26080;SDS011;13991;51.174;4.438;2024-03-02T02:56:25;0.50;;;0.30;;
26080;SDS011;13991;51.174;4.438;2024-03-02T02:58:50;3.90;;;0.57;;
26080;SDS011;13991;51.174;4.438;2024-03-02T03:01:16;6.03;;;0.50;;
26080;SDS011;13991;51.174;4.438;2024-03-02T03:03:43;0.63;;;0.30;;
26080;SDS011;13991;51.174;4.438;2024-03-02T03:06:09;4.03;;;0.50;;
26080;SDS011;13991;51.174;4.438;2024-03-02T03:08:36;7.43;;;0.63;;
26080;SDS011;13991;51.174;4.438;2024-03-02T03:11:03;1.00;;;0.40;;
26080;SDS011;13991;51.174;4.438;2024-03-02T03:13:30;7.00;;;0.50;;
26080;SDS011;13991;51.174;4.438;2024-03-02T03:15:57;4.87;;;0.40;;
26080;SDS011;13991;51.174;4.438;2024-03-02T03:18:22;4.17;;;0.40;;
26080;SDS011;13991;51.174;4.438;2024-03-02T03:20:48;3.13;;;0.40;;
26080;SDS011;13991;51.174;4.438;2024-03-02T03:23:15;2.63;;;0.60;;
26080;SDS011;13991;51.174;4.438;2024-03-02T03:25:42;1.03;;;0.47;;
26080;SDS011;13991;51.174;4.438;2024-03-02T03:28:08;1.50;;;0.50;;
26080;SDS011;13991;51.174;4.438;2024-03-02T03:30:37;2.13;;;0.57;;
26080;SDS011;13991;51.174;4.438;2024-03-02T03:33:03;4.43;;;0.50;;
26080;SDS011;13991;51.174;4.438;2024-03-02T03:35:32;1.07;;;0.40;;
26080;SDS011;13991;51.174;4.438;2024-03-02T03:37:58;0.87;;;0.30;;
26080;SDS011;13991;51.174;4.438;2024-03-02T03:40:24;0.60;;;0.50;;
26080;SDS011;13991;51.174;4.438;2024-03-02T03:42:51;5.80;;;0.40;;
26080;SDS011;13991;51.174;4.438;2024-03-02T03:45:16;7.23;;;0.40;;
26080;SDS011;13991;51.174;4.438;2024-03-02T03:47:42;1.33;;;0.50;;
26080;SDS011;13991;51.174;4.438;2024-03-02T03:50:08;1.80;;;0.30;;
26080;SDS011;13991;51.174;4.438;2024-03-02T03:52:34;1.60;;;0.40;;
26080;SDS011;13991;51.174;4.438;2024-03-02T03:55:00;6.57;;;0.40;;
26080;SDS011;13991;51.174;4.438;2024-03-02T03:57:26;2.90;;;0.30;;
26080;SDS011;13991;51.174;4.438;2024-03-02T03:59:52;9.43;;;0.50;;
26080;SDS011;13991;51.174;4.438;2024-03-02T04:07:30;4.83;;;0.70;;
26080;SDS011;13991;51.174;4.438;2024-03-02T04:09:56;3.07;;;0.50;;
26080;SDS011;13991;51.174;4.438;2024-03-02T04:12:30;4.20;;;0.70;;
26080;SDS011;13991;51.174;4.438;2024-03-02T04:20:20;1.70;;;0.57;;
26080;SDS011;13991;51.174;4.438;2024-03-02T04:23:02;5.47;;;0.50;;
26080;SDS011;13991;51.174;4.438;2024-03-02T04:25:42;3.97;;;0.80;;
26080;SDS011;13991;51.174;4.438;2024-03-02T04:28:12;4.57;;;0.60;;
26080;SDS011;13991;51.174;4.438;2024-03-02T04:30:42;1.37;;;0.47;;
26080;SDS011;13991;51.174;4.438;2024-03-02T04:47:52;4.43;;;0.47;;
26080;SDS011;13991;51.174;4.438;2024-03-02T04:50:21;3.30;;;0.50;;
26080;SDS011;13991;51.174;4.438;2024-03-02T04:52:48;1.27;;;0.40;;
26080;SDS011;13991;51.174;4.438;2024-03-02T04:55:26;7.33;;;0.70;;
26080;SDS011;13991;51.174;4.438;2024-03-02T04:57:54;1.73;;;0.57;;
26080;SDS011;13991;51.174;4.438;2024-03-02T05:00:21;3.97;;;0.70;;
26080;SDS011;13991;51.174;4.438;2024-03-02T05:02:47;3.63;;;0.60;;
26080;SDS011;13991;51.174;4.438;2024-03-02T05:05:13;2.20;;;0.50;;
26080;SDS011;13991;51.174;4.438;2024-03-02T05:07:42;3.00;;;0.80;;
26080;SDS011;13991;51.174;4.438;2024-03-02T05:10:15;4.13;;;0.70;;
26080;SDS011;13991;51.174;4.438;2024-03-02T05:12:41;2.77;;;0.53;;
26080;SDS011;13991;51.174;4.438;2024-03-02T05:15:07;8.63;;;0.80;;
26080;SDS011;13991;51.174;4.438;2024-03-02T05:17:37;3.50;;;0.40;;
26080;SDS011;13991;51.174;4.438;2024-03-02T05:20:06;8.77;;;0.60;;
26080;SDS011;13991;51.174;4.438;2024-03-02T05:22:35;2.37;;;0.50;;
26080;SDS011;13991;51.174;4.438;2024-03-02T05:25:03;5.43;;;0.90;;
26080;SDS011;13991;51.174;4.438;2024-03-02T05:27:29;4.03;;;0.70;;
26080;SDS011;13991;51.174;4.438;2024-03-02T05:29:56;2.93;;;0.90;;
26080;SDS011;13991;51.174;4.438;2024-03-02T05:32:22;11.00;;;1.33;;
26080;SDS011;13991;51.174;4.438;2024-03-02T05:34:48;4.17;;;0.80;;
26080;SDS011;13991;51.174;4.438;2024-03-02T05:37:15;4.07;;;0.50;;
26080;SDS011;13991;51.174;4.438;2024-03-02T05:39:41;10.53;;;0.97;;
26080;SDS011;13991;51.174;4.438;2024-03-02T05:42:08;2.47;;;0.53;;
26080;SDS011;13991;51.174;4.438;2024-03-02T05:44:35;6.90;;;0.60;;
26080;SDS011;13991;51.174;4.438;2024-03-02T05:47:01;6.50;;;1.10;;
26080;SDS011;13991;51.174;4.438;2024-03-02T05:49:28;4.30;;;0.93;;
26080;SDS011;13991;51.174;4.438;2024-03-02T05:51:54;2.83;;;0.60;;
26080;SDS011;13991;51.174;4.438;2024-03-02T05:54:19;4.63;;;0.67;;
26080;SDS011;13991;51.174;4.438;2024-03-02T05:56:45;7.23;;;0.77;;
26080;SDS011;13991;51.174;4.438;2024-03-02T05:59:11;4.97;;;0.73;;
26080;SDS011;13991;51.174;4.438;2024-03-02T06:01:47;5.20;;;0.67;;
26080;SDS011;13991;51.174;4.438;2024-03-02T06:04:15;4.87;;;0.83;;
26080;SDS011;13991;51.174;4.438;2024-03-02T06:06:41;17.63;;;1.27;;
26080;SDS011;13991;51.174;4.438;2024-03-02T06:09:07;8.23;;;0.73;;
26080;SDS011;13991;51.174;4.438;2024-03-02T06:11:36;9.63;;;1.20;;
26080;SDS011;13991;51.174;4.438;2024-03-02T06:14:06;4.97;;;0.90;;
26080;SDS011;13991;51.174;4.438;2024-03-02T06:16:33;5.00;;;1.33;;
26080;SDS011;13991;51.174;4.438;2024-03-02T06:18:59;7.60;;;1.20;;
26080;SDS011;13991;51.174;4.438;2024-03-02T06:21:25;13.63;;;1.20;;
26080;SDS011;13991;51.174;4.438;2024-03-02T06:23:52;5.47;;;1.10;;
26080;SDS011;13991;51.174;4.438;2024-03-02T06:26:18;2.30;;;0.90;;
26080;SDS011;13991;51.174;4.438;2024-03-02T06:28:44;7.47;;;1.20;;
26080;SDS011;13991;51.174;4.438;2024-03-02T06:36:21;5.20;;;1.70;;
26080;SDS011;13991;51.174;4.438;2024-03-02T06:38:57;3.60;;;0.80;;
26080;SDS011;13991;51.174;4.438;2024-03-02T07:15:29;7.40;;;1.00;;
26080;SDS011;13991;51.174;4.438;2024-03-02T07:28:52;3.37;;;0.70;;
26080;SDS011;13991;51.174;4.438;2024-03-02T07:31:17;11.80;;;1.00;;
26080;SDS011;13991;51.174;4.438;2024-03-02T07:33:44;8.87;;;1.00;;
26080;SDS011;13991;51.174;4.438;2024-03-02T07:36:11;3.97;;;0.87;;
26080;SDS011;13991;51.174;4.438;2024-03-02T07:38:37;7.50;;;0.70;;
26080;SDS011;13991;51.174;4.438;2024-03-02T07:41:03;0.83;;;0.43;;
26080;SDS011;13991;51.174;4.438;2024-03-02T07:43:29;6.37;;;1.10;;
26080;SDS011;13991;51.174;4.438;2024-03-02T07:45:56;3.80;;;0.60;;
26080;SDS011;13991;51.174;4.438;2024-03-02T07:48:22;2.77;;;0.90;;
26080;SDS011;13991;51.174;4.438;2024-03-02T07:50:48;7.90;;;0.83;;
26080;SDS011;13991;51.174;4.438;2024-03-02T07:53:14;8.17;;;1.20;;
26080;SDS011;13991;51.174;4.438;2024-03-02T07:55:39;5.00;;;1.07;;
26080;SDS011;13991;51.174;4.438;2024-03-02T07:58:05;8.37;;;1.13;;
26080;SDS011;13991;51.174;4.438;2024-03-02T08:00:31;7.10;;;1.00;;
26080;SDS011;13991;51.174;4.438;2024-03-02T08:02:57;11.50;;;1.40;;
26080;SDS011;13991;51.174;4.438;2024-03-02T08:05:23;13.57;;;1.00;;
26080;SDS011;13991;51.174;4.438;2024-03-02T08:07:49;16.23;;;1.00;;
26080;SDS011;13991;51.174;4.438;2024-03-02T08:10:18;6.47;;;0.90;;
26080;SDS011;13991;51.174;4.438;2024-03-02T08:12:44;7.93;;;1.03;;
26080;SDS011;13991;51.174;4.438;2024-03-02T08:15:10;10.10;;;0.70;;
26080;SDS011;13991;51.174;4.438;2024-03-02T08:17:37;10.90;;;2.07;;
26080;SDS011;13991;51.174;4.438;2024-03-02T08:20:09;3.03;;;0.50;;
26080;SDS011;13991;51.174;4.438;2024-03-02T08:22:36;11.93;;;1.17;;
26080;SDS011;13991;51.174;4.438;2024-03-02T08:25:02;8.07;;;0.80;;
26080;SDS011;13991;51.174;4.438;2024-03-02T08:27:28;6.80;;;1.13;;
26080;SDS011;13991;51.174;4.438;2024-03-02T08:29:54;11.23;;;1.47;;
26080;SDS011;13991;51.174;4.438;2024-03-02T08:32:20;3.87;;;0.63;;
26080;SDS011;13991;51.174;4.438;2024-03-02T08:34:45;10.67;;;1.30;;
26080;SDS011;13991;51.174;4.438;2024-03-02T08:37:11;16.27;;;1.23;;
26080;SDS011;13991;51.174;4.438;2024-03-02T08:39:37;13.63;;;1.00;;
26080;SDS011;13991;51.174;4.438;2024-03-02T08:42:02;17.13;;;0.80;;
26080;SDS011;13991;51.174;4.438;2024-03-02T08:44:29;13.83;;;1.20;;
26080;SDS011;13991;51.174;4.438;2024-03-02T08:46:55;6.20;;;0.80;;
26080;SDS011;13991;51.174;4.438;2024-03-02T08:49:21;9.93;;;0.70;;
26080;SDS011;13991;51.174;4.438;2024-03-02T08:51:47;13.73;;;1.47;;
26080;SDS011;13991;51.174;4.438;2024-03-02T08:54:20;10.67;;;1.13;;
26080;SDS011;13991;51.174;4.438;2024-03-02T08:56:47;9.83;;;1.10;;
26080;SDS011;13991;51.174;4.438;2024-03-02T08:59:13;16.40;;;0.93;;
26080;SDS011;13991;51.174;4.438;2024-03-02T09:01:39;8.43;;;1.13;;
26080;SDS011;13991;51.174;4.438;2024-03-02T09:04:06;11.60;;;0.80;;
26080;SDS011;13991;51.174;4.438;2024-03-02T09:06:34;11.40;;;1.60;;
26080;SDS011;13991;51.174;4.438;2024-03-02T09:08:59;4.13;;;1.00;;
26080;SDS011;13991;51.174;4.438;2024-03-02T09:11:25;6.57;;;0.93;;
26080;SDS011;13991;51.174;4.438;2024-03-02T09:13:51;7.43;;;1.00;;
26080;SDS011;13991;51.174;4.438;2024-03-02T09:16:18;10.50;;;1.23;;
26080;SDS011;13991;51.174;4.438;2024-03-02T09:18:44;4.80;;;1.03;;
26080;SDS011;13991;51.174;4.438;2024-03-02T09:21:10;9.30;;;0.80;;
26080;SDS011;13991;51.174;4.438;2024-03-02T09:23:35;10.10;;;1.00;;
26080;SDS011;13991;51.174;4.438;2024-03-02T09:26:01;9.47;;;1.50;;
26080;SDS011;13991;51.174;4.438;2024-03-02T09:28:28;12.97;;;1.00;;
26080;SDS011;13991;51.174;4.438;2024-03-02T09:30:54;14.77;;;1.37;;
26080;SDS011;13991;51.174;4.438;2024-03-02T09:33:19;10.00;;;0.80;;
26080;SDS011;13991;51.174;4.438;2024-03-02T09:35:45;4.83;;;0.73;;
26080;SDS011;13991;51.174;4.438;2024-03-02T09:38:11;13.90;;;1.37;;
26080;SDS011;13991;51.174;4.438;2024-03-02T09:40:37;11.73;;;0.60;;
26080;SDS011;13991;51.174;4.438;2024-03-02T09:43:03;13.30;;;1.17;;
26080;SDS011;13991;51.174;4.438;2024-03-02T09:45:28;11.87;;;0.80;;
26080;SDS011;13991;51.174;4.438;2024-03-02T09:47:55;11.67;;;1.33;;
26080;SDS011;13991;51.174;4.438;2024-03-02T09:50:21;17.00;;;1.30;;
26080;SDS011;13991;51.174;4.438;2024-03-02T09:52:50;9.33;;;1.30;;
26080;SDS011;13991;51.174;4.438;2024-03-02T09:55:17;10.17;;;0.97;;
26080;SDS011;13991;51.174;4.438;2024-03-02T09:57:44;9.10;;;1.40;;
26080;SDS011;13991;51.174;4.438;2024-03-02T10:00:11;7.43;;;0.70;;
26080;SDS011;13991;51.174;4.438;2024-03-02T10:02:40;8.07;;;0.77;;
26080;SDS011;13991;51.174;4.438;2024-03-02T10:05:09;10.40;;;2.30;;
26080;SDS011;13991;51.174;4.438;2024-03-02T10:07:35;11.87;;;0.80;;
26080;SDS011;13991;51.174;4.438;2024-03-02T10:10:13;11.90;;;1.00;;
26080;SDS011;13991;51.174;4.438;2024-03-02T10:12:40;15.93;;;1.33;;
26080;SDS011;13991;51.174;4.438;2024-03-02T10:15:06;19.50;;;1.27;;
26080;SDS011;13991;51.174;4.438;2024-03-02T10:17:32;14.57;;;1.73;;
26080;SDS011;13991;51.174;4.438;2024-03-02T10:19:58;7.37;;;0.97;;
26080;SDS011;13991;51.174;4.438;2024-03-02T10:22:24;16.97;;;1.60;;
26080;SDS011;13991;51.174;4.438;2024-03-02T10:24:51;13.77;;;1.27;;
26080;SDS011;13991;51.174;4.438;2024-03-02T10:27:21;12.57;;;1.33;;
26080;SDS011;13991;51.174;4.438;2024-03-02T10:29:48;16.07;;;1.60;;
26080;SDS011;13991;51.174;4.438;2024-03-02T10:32:15;8.37;;;0.90;;
26080;SDS011;13991;51.174;4.438;2024-03-02T10:34:41;12.77;;;1.17;;
26080;SDS011;13991;51.174;4.438;2024-03-02T10:37:10;11.33;;;1.10;;
26080;SDS011;13991;51.174;4.438;2024-03-02T10:39:36;11.23;;;1.03;;
26080;SDS011;13991;51.174;4.438;2024-03-02T10:42:04;11.83;;;1.00;;
26080;SDS011;13991;51.174;4.438;2024-03-02T10:44:31;5.40;;;0.80;;
26080;SDS011;13991;51.174;4.438;2024-03-02T10:47:01;14.37;;;1.43;;
26080;SDS011;13991;51.174;4.438;2024-03-02T10:49:29;12.87;;;0.97;;
26080;SDS011;13991;51.174;4.438;2024-03-02T10:51:56;7.87;;;1.47;;
26080;SDS011;13991;51.174;4.438;2024-03-02T10:54:23;12.53;;;1.53;;
26080;SDS011;13991;51.174;4.438;2024-03-02T10:56:52;7.67;;;0.87;;
26080;SDS011;13991;51.174;4.438;2024-03-02T10:59:31;6.97;;;0.90;;
26080;SDS011;13991;51.174;4.438;2024-03-02T11:02:00;9.87;;;1.10;;
26080;SDS011;13991;51.174;4.438;2024-03-02T11:04:28;12.27;;;1.27;;
26080;SDS011;13991;51.174;4.438;2024-03-02T11:09:35;12.03;;;1.20;;
26080;SDS011;13991;51.174;4.438;2024-03-02T11:12:31;10.90;;;0.73;;
26080;SDS011;13991;51.174;4.438;2024-03-02T11:15:04;6.83;;;1.03;;
26080;SDS011;13991;51.174;4.438;2024-03-02T11:17:35;13.77;;;1.50;;
26080;SDS011;13991;51.174;4.438;2024-03-02T11:20:03;16.83;;;1.27;;
26080;SDS011;13991;51.174;4.438;2024-03-02T11:22:29;7.77;;;0.83;;
26080;SDS011;13991;51.174;4.438;2024-03-02T11:24:55;9.83;;;1.50;;
26080;SDS011;13991;51.174;4.438;2024-03-02T11:32:57;12.53;;;1.00;;
26080;SDS011;13991;51.174;4.438;2024-03-02T11:35:28;7.70;;;0.83;;
26080;SDS011;13991;51.174;4.438;2024-03-02T11:37:54;13.17;;;1.27;;
26080;SDS011;13991;51.174;4.438;2024-03-02T11:40:27;16.40;;;1.13;;
26080;SDS011;13991;51.174;4.438;2024-03-02T11:42:53;5.50;;;1.03;;
26080;SDS011;13991;51.174;4.438;2024-03-02T11:45:24;5.40;;;0.63;;
26080;SDS011;13991;51.174;4.438;2024-03-02T11:47:51;11.23;;;0.97;;
26080;SDS011;13991;51.174;4.438;2024-03-02T11:52:55;12.37;;;1.73;;
26080;SDS011;13991;51.174;4.438;2024-03-02T11:55:23;11.23;;;1.03;;
26080;SDS011;13991;51.174;4.438;2024-03-02T11:57:51;13.73;;;0.70;;
26080;SDS011;13991;51.174;4.438;2024-03-02T12:00:18;11.87;;;1.10;;
26080;SDS011;13991;51.174;4.438;2024-03-02T12:02:48;7.57;;;1.57;;
26080;SDS011;13991;51.174;4.438;2024-03-02T12:05:28;12.67;;;1.13;;
26080;SDS011;13991;51.174;4.438;2024-03-02T12:07:59;7.27;;;1.13;;
26080;SDS011;13991;51.174;4.438;2024-03-02T12:10:27;9.00;;;1.50;;
26080;SDS011;13991;51.174;4.438;2024-03-02T12:15:25;6.90;;;0.80;;
26080;SDS011;13991;51.174;4.438;2024-03-02T12:17:53;8.13;;;0.93;;
26080;SDS011;13991;51.174;4.438;2024-03-02T12:20:19;7.00;;;0.70;;
26080;SDS011;13991;51.174;4.438;2024-03-02T12:22:45;9.57;;;0.83;;
26080;SDS011;13991;51.174;4.438;2024-03-02T12:25:11;4.97;;;0.90;;
26080;SDS011;13991;51.174;4.438;2024-03-02T12:30:12;11.73;;;1.07;;
26080;SDS011;13991;51.174;4.438;2024-03-02T12:32:39;9.43;;;1.20;;
26080;SDS011;13991;51.174;4.438;2024-03-02T12:35:06;9.77;;;0.83;;
26080;SDS011;13991;51.174;4.438;2024-03-02T12:37:31;9.10;;;1.17;;
26080;SDS011;13991;51.174;4.438;2024-03-02T12:39:58;6.30;;;0.57;;
26080;SDS011;13991;51.174;4.438;2024-03-02T12:42:24;11.67;;;0.97;;
26080;SDS011;13991;51.174;4.438;2024-03-02T12:52:37;12.37;;;1.23;;
26080;SDS011;13991;51.174;4.438;2024-03-02T12:55:04;8.53;;;1.27;;
26080;SDS011;13991;51.174;4.438;2024-03-02T13:27:05;5.37;;;0.63;;
26080;SDS011;13991;51.174;4.438;2024-03-02T13:29:31;8.10;;;1.13;;
26080;SDS011;13991;51.174;4.438;2024-03-02T13:31:57;6.07;;;0.90;;
26080;SDS011;13991;51.174;4.438;2024-03-02T13:34:23;4.57;;;0.60;;
26080;SDS011;13991;51.174;4.438;2024-03-02T13:36:48;3.03;;;0.50;;
26080;SDS011;13991;51.174;4.438;2024-03-02T13:39:14;10.40;;;1.00;;
26080;SDS011;13991;51.174;4.438;2024-03-02T13:41:40;8.77;;;1.00;;
26080;SDS011;13991;51.174;4.438;2024-03-02T13:44:06;11.93;;;1.10;;
26080;SDS011;13991;51.174;4.438;2024-03-02T13:46:32;5.53;;;0.87;;
26080;SDS011;13991;51.174;4.438;2024-03-02T13:48:58;11.30;;;1.00;;
26080;SDS011;13991;51.174;4.438;2024-03-02T13:51:23;5.13;;;0.90;;
26080;SDS011;13991;51.174;4.438;2024-03-02T13:53:50;2.40;;;0.80;;
26080;SDS011;13991;51.174;4.438;2024-03-02T13:56:16;10.60;;;1.00;;
26080;SDS011;13991;51.174;4.438;2024-03-02T13:58:42;8.13;;;0.67;;
26080;SDS011;13991;51.174;4.438;2024-03-02T14:01:08;3.40;;;0.70;;
26080;SDS011;13991;51.174;4.438;2024-03-02T14:03:34;5.57;;;0.70;;
26080;SDS011;13991;51.174;4.438;2024-03-02T14:06:00;6.13;;;0.77;;
26080;SDS011;13991;51.174;4.438;2024-03-02T14:08:26;4.60;;;0.60;;
26080;SDS011;13991;51.174;4.438;2024-03-02T14:10:52;4.67;;;0.70;;
26080;SDS011;13991;51.174;4.438;2024-03-02T14:13:19;9.20;;;0.60;;
26080;SDS011;13991;51.174;4.438;2024-03-02T14:15:45;4.63;;;0.93;;
26080;SDS011;13991;51.174;4.438;2024-03-02T14:18:11;9.37;;;0.50;;
26080;SDS011;13991;51.174;4.438;2024-03-02T14:30:52;4.13;;;0.80;;
26080;SDS011;13991;51.174;4.438;2024-03-02T14:33:18;3.63;;;0.67;;
26080;SDS011;13991;51.174;4.438;2024-03-02T14:35:44;9.53;;;0.90;;
26080;SDS011;13991;51.174;4.438;2024-03-02T14:38:11;9.03;;;0.80;;
26080;SDS011;13991;51.174;4.438;2024-03-02T14:40:38;7.57;;;0.60;;
26080;SDS011;13991;51.174;4.438;2024-03-02T14:43:05;8.10;;;0.90;;
26080;SDS011;13991;51.174;4.438;2024-03-02T14:45:32;3.80;;;0.50;;
26080;SDS011;13991;51.174;4.438;2024-03-02T14:47:59;2.73;;;0.30;;
26080;SDS011;13991;51.174;4.438;2024-03-02T14:50:46;4.00;;;0.77;;
26080;SDS011;13991;51.174;4.438;2024-03-02T14:53:12;4.73;;;0.93;;
26080;SDS011;13991;51.174;4.438;2024-03-02T14:58:09;4.20;;;0.67;;
26080;SDS011;13991;51.174;4.438;2024-03-02T15:00:35;9.90;;;0.90;;
26080;SDS011;13991;51.174;4.438;2024-03-02T15:03:01;7.43;;;0.70;;
26080;SDS011;13991;51.174;4.438;2024-03-02T15:05:28;4.83;;;0.77;;
26080;SDS011;13991;51.174;4.438;2024-03-02T15:07:55;5.83;;;0.50;;
26080;SDS011;13991;51.174;4.438;2024-03-02T15:10:24;1.30;;;0.30;;
26080;SDS011;13991;51.174;4.438;2024-03-02T15:12:50;1.03;;;0.30;;
26080;SDS011;13991;51.174;4.438;2024-03-02T15:15:17;5.63;;;1.20;;
26080;SDS011;13991;51.174;4.438;2024-03-02T15:20:20;7.20;;;0.50;;
26080;SDS011;13991;51.174;4.438;2024-03-02T15:25:22;1.67;;;0.50;;
26080;SDS011;13991;51.174;4.438;2024-03-02T15:33:36;6.10;;;0.87;;
26080;SDS011;13991;51.174;4.438;2024-03-02T15:36:03;3.73;;;0.90;;
26080;SDS011;13991;51.174;4.438;2024-03-02T15:49:00;2.90;;;0.50;;
26080;SDS011;13991;51.174;4.438;2024-03-02T15:51:41;9.50;;;0.67;;
26080;SDS011;13991;51.174;4.438;2024-03-02T15:54:22;5.27;;;0.70;;
26080;SDS011;13991;51.174;4.438;2024-03-02T16:19:58;2.20;;;0.60;;
26080;SDS011;13991;51.174;4.438;2024-03-02T16:22:23;7.07;;;0.93;;
26080;SDS011;13991;51.174;4.438;2024-03-02T18:00:06;23.77;;;2.23;;
26080;SDS011;13991;51.174;4.438;2024-03-02T18:02:35;5.43;;;1.50;;
26080;SDS011;13991;51.174;4.438;2024-03-02T18:05:01;7.30;;;1.60;;
26080;SDS011;13991;51.174;4.438;2024-03-02T18:07:29;3.30;;;1.07;;
26080;SDS011;13991;51.174;4.438;2024-03-02T18:09:54;5.33;;;1.50;;
26080;SDS011;13991;51.174;4.438;2024-03-02T18:12:25;5.60;;;1.83;;
26080;SDS011;13991;51.174;4.438;2024-03-02T18:14:51;8.30;;;1.63;;
26080;SDS011;13991;51.174;4.438;2024-03-02T18:17:16;4.63;;;1.73;;
26080;SDS011;13991;51.174;4.438;2024-03-02T18:19:43;3.93;;;1.63;;
26080;SDS011;13991;51.174;4.438;2024-03-02T18:22:10;5.13;;;1.50;;
26080;SDS011;13991;51.174;4.438;2024-03-02T18:24:35;4.53;;;1.27;;
26080;SDS011;13991;51.174;4.438;2024-03-02T18:27:01;5.40;;;1.60;;
26080;SDS011;13991;51.174;4.438;2024-03-02T18:29:27;3.13;;;1.47;;
26080;SDS011;13991;51.174;4.438;2024-03-02T18:31:53;4.13;;;1.40;;
26080;SDS011;13991;51.174;4.438;2024-03-02T18:34:18;5.47;;;1.37;;
26080;SDS011;13991;51.174;4.438;2024-03-02T18:36:44;6.33;;;1.60;;
26080;SDS011;13991;51.174;4.438;2024-03-02T18:39:10;7.37;;;1.97;;
26080;SDS011;13991;51.174;4.438;2024-03-02T18:41:35;5.43;;;1.73;;
26080;SDS011;13991;51.174;4.438;2024-03-02T18:44:01;10.20;;;2.50;;
26080;SDS011;13991;51.174;4.438;2024-03-02T18:46:28;10.07;;;2.50;;
26080;SDS011;13991;51.174;4.438;2024-03-02T18:48:54;8.40;;;1.50;;
26080;SDS011;13991;51.174;4.438;2024-03-02T18:51:20;3.47;;;1.60;;
26080;SDS011;13991;51.174;4.438;2024-03-02T18:53:50;3.40;;;1.70;;
26080;SDS011;13991;51.174;4.438;2024-03-02T18:56:16;4.90;;;1.63;;
26080;SDS011;13991;51.174;4.438;2024-03-02T18:58:41;3.67;;;1.53;;
26080;SDS011;13991;51.174;4.438;2024-03-02T19:01:07;3.57;;;1.40;;
26080;SDS011;13991;51.174;4.438;2024-03-02T19:03:33;4.33;;;1.77;;
26080;SDS011;13991;51.174;4.438;2024-03-02T19:05:59;4.77;;;2.03;;
26080;SDS011;13991;51.174;4.438;2024-03-02T19:08:29;6.70;;;2.37;;
26080;SDS011;13991;51.174;4.438;2024-03-02T19:13:32;4.70;;;1.77;;
26080;SDS011;13991;51.174;4.438;2024-03-02T19:16:12;5.50;;;2.23;;
26080;SDS011;13991;51.174;4.438;2024-03-02T19:18:39;5.90;;;2.50;;
26080;SDS011;13991;51.174;4.438;2024-03-02T19:21:05;5.90;;;2.37;;
26080;SDS011;13991;51.174;4.438;2024-03-02T19:23:44;5.17;;;1.87;;
26080;SDS011;13991;51.174;4.438;2024-03-02T19:26:09;6.57;;;2.27;;
26080;SDS011;13991;51.174;4.438;2024-03-02T19:28:42;8.43;;;2.90;;
26080;SDS011;13991;51.174;4.438;2024-03-02T20:07:34;5.30;;;1.80;;
26080;SDS011;13991;51.174;4.438;2024-03-02T20:51:39;2.37;;;1.03;;
26080;SDS011;13991;51.174;4.438;2024-03-02T20:54:05;6.33;;;1.33;;
26080;SDS011;13991;51.174;4.438;2024-03-02T20:56:31;2.17;;;0.67;;